createdAt,value
2018-11-07T00:00:05.529Z,7.93
2018-11-07T00:01:40.810Z,8.15
2018-11-07T00:03:24.576Z,8.20
2018-11-07T00:05:01.386Z,8.20
2018-11-07T00:06:40.301Z,8.26
2018-11-07T00:08:18.200Z,8.29
2018-11-07T00:10:00.271Z,8.45
2018-11-07T00:11:38.622Z,8.48
2018-11-07T00:13:14.828Z,8.41
2018-11-07T00:14:51.658Z,8.39
2018-11-07T00:16:27.900Z,8.42
2018-11-07T00:18:17.491Z,8.47
2018-11-07T00:19:53.400Z,8.55
2018-11-07T00:21:32.304Z,8.51
2018-11-07T00:23:08.772Z,8.48
2018-11-07T00:24:45.218Z,8.45
2018-11-07T00:26:21.128Z,8.40
2018-11-07T00:27:57.019Z,8.39
2018-11-07T00:29:32.915Z,8.35
2018-11-07T00:31:09.635Z,8.31
2018-11-07T00:32:46.086Z,8.31
2018-11-07T00:34:23.745Z,8.45
2018-11-07T00:35:59.772Z,8.36
2018-11-07T00:37:36.196Z,8.32
2018-11-07T00:39:16.879Z,8.39
2018-11-07T00:40:56.396Z,8.34
2018-11-07T00:42:32.754Z,8.26
2018-11-07T00:44:11.187Z,8.25
2018-11-07T00:45:46.543Z,8.34
2018-11-07T00:47:21.975Z,8.30
2018-11-07T00:49:02.607Z,8.38
2018-11-07T00:50:37.804Z,8.29
2018-11-07T00:52:15.299Z,8.29
2018-11-07T00:53:54.449Z,8.27
2018-11-07T00:55:31.644Z,8.39
2018-11-07T00:57:07.710Z,8.38
2018-11-07T00:58:54.334Z,8.33
2018-11-07T01:00:33.535Z,8.34
2018-11-07T01:02:12.311Z,8.36
2018-11-07T01:03:53.000Z,8.33
2018-11-07T01:05:39.593Z,8.36
2018-11-07T01:07:20.697Z,8.37
2018-11-07T01:09:03.726Z,8.37
2018-11-07T01:10:50.430Z,8.41
2018-11-07T01:12:35.020Z,8.38
2018-11-07T01:14:19.847Z,8.42
2018-11-07T01:15:55.550Z,8.39
2018-11-07T01:17:30.711Z,8.42
2018-11-07T01:19:07.269Z,8.43
2018-11-07T01:20:44.411Z,8.51
2018-11-07T01:22:19.740Z,8.60
2018-11-07T01:24:02.124Z,8.54
2018-11-07T01:25:39.485Z,8.48
2018-11-07T01:27:21.539Z,8.53
2018-11-07T01:28:58.011Z,8.53
2018-11-07T01:30:36.007Z,8.62
2018-11-07T01:32:30.544Z,8.63
2018-11-07T01:34:15.130Z,8.61
2018-11-07T01:35:53.980Z,8.52
2018-11-07T01:37:33.782Z,8.60
2018-11-07T01:39:15.809Z,8.63
2018-11-07T01:41:06.441Z,8.53
2018-11-07T01:42:46.284Z,8.53
2018-11-07T01:44:26.259Z,8.56
2018-11-07T01:46:11.797Z,8.52
2018-11-07T01:47:51.704Z,8.47
2018-11-07T01:49:28.855Z,8.38
2018-11-07T01:51:04.543Z,8.38
2018-11-07T01:52:45.092Z,8.32
2018-11-07T01:54:22.066Z,8.30
2018-11-07T01:56:05.706Z,8.21
2018-11-07T01:57:46.380Z,8.09
2018-11-07T01:59:29.018Z,8.13
2018-11-07T02:01:04.391Z,8.16
2018-11-07T02:02:44.591Z,8.19
2018-11-07T02:04:24.291Z,8.28
2018-11-07T02:06:00.270Z,8.26
2018-11-07T02:07:40.161Z,8.27
2018-11-07T02:09:17.283Z,8.31
2018-11-07T02:10:56.218Z,8.19
2018-11-07T02:12:31.553Z,8.26
2018-11-07T02:14:22.107Z,8.21
2018-11-07T02:15:57.608Z,8.17
2018-11-07T02:17:35.123Z,8.17
2018-11-07T02:19:12.077Z,8.18
2018-11-07T02:20:48.928Z,8.08
2018-11-07T02:23:29.914Z,8.06
2018-11-07T02:25:13.400Z,8.03
2018-11-07T02:26:49.784Z,7.95
2018-11-07T02:28:35.978Z,8.00
2018-11-07T02:30:17.995Z,7.90
2018-11-07T02:31:56.065Z,7.88
2018-11-07T02:33:38.698Z,7.84
2018-11-07T02:35:17.647Z,7.78
2018-11-07T02:37:03.122Z,7.89
2018-11-07T02:38:44.125Z,7.88
2018-11-07T02:40:22.271Z,7.89
2018-11-07T02:42:00.978Z,7.88
2018-11-07T02:45:28.324Z,7.83
2018-11-07T02:47:09.544Z,7.97
2018-11-07T02:48:45.429Z,7.88
2018-11-07T02:50:21.643Z,7.91
2018-11-07T02:51:59.320Z,7.95
2018-11-07T02:53:43.026Z,7.95
2018-11-07T02:55:25.624Z,7.96
2018-11-07T02:57:05.455Z,8.05
2018-11-07T02:58:41.183Z,7.98
2018-11-07T03:00:22.521Z,8.07
2018-11-07T03:02:15.708Z,8.07
2018-11-07T03:03:53.338Z,8.08
2018-11-07T03:05:34.343Z,8.14
2018-11-07T03:07:15.625Z,8.28
2018-11-07T03:08:51.370Z,8.29
2018-11-07T03:10:31.645Z,8.31
2018-11-07T03:12:07.935Z,8.33
2018-11-07T03:13:44.182Z,8.31
2018-11-07T03:15:19.793Z,8.28
2018-11-07T03:16:54.751Z,8.25
2018-11-07T03:18:31.415Z,8.27
2018-11-07T03:20:08.949Z,8.26
2018-11-07T03:21:48.547Z,8.26
2018-11-07T03:23:25.111Z,8.45
2018-11-07T03:25:01.134Z,8.44
2018-11-07T03:26:37.118Z,8.49
2018-11-07T03:28:14.846Z,8.44
2018-11-07T03:29:58.767Z,8.48
2018-11-07T03:31:37.243Z,8.53
2018-11-07T03:33:12.651Z,8.51
2018-11-07T03:34:48.476Z,8.54
2018-11-07T03:36:23.779Z,8.60
2018-11-07T03:37:59.225Z,8.56
2018-11-07T03:39:35.375Z,8.60
2018-11-07T03:41:13.067Z,8.65
2018-11-07T03:42:48.599Z,8.72
2018-11-07T03:44:23.863Z,8.72
2018-11-07T03:45:59.381Z,8.73
2018-11-07T03:47:34.671Z,8.69
2018-11-07T03:49:10.195Z,8.62
2018-11-07T03:50:45.307Z,8.62
2018-11-07T03:52:23.818Z,8.63
2018-11-07T03:53:58.889Z,8.67
2018-11-07T03:55:34.891Z,8.65
2018-11-07T03:57:19.403Z,8.53
2018-11-07T03:58:58.373Z,8.47
2018-11-07T04:00:33.546Z,8.43
2018-11-07T04:02:11.937Z,8.53
2018-11-07T04:03:47.364Z,8.48
2018-11-07T04:05:23.182Z,8.48
2018-11-07T04:07:01.315Z,8.46
2018-11-07T04:08:37.450Z,8.44
2018-11-07T04:10:12.514Z,8.38
2018-11-07T04:11:48.106Z,8.40
2018-11-07T04:13:23.121Z,8.45
2018-11-07T04:14:58.428Z,8.39
2018-11-07T04:16:35.441Z,8.39
2018-11-07T04:18:10.570Z,8.41
2018-11-07T04:19:47.121Z,8.46
2018-11-07T04:21:33.090Z,8.45
2018-11-07T04:23:24.837Z,8.36
2018-11-07T04:25:11.755Z,8.36
2018-11-07T04:26:47.329Z,8.34
2018-11-07T04:28:22.717Z,8.33
2018-11-07T04:30:04.271Z,8.21
2018-11-07T04:31:41.261Z,8.27
2018-11-07T04:33:17.148Z,8.27
2018-11-07T04:34:52.478Z,8.27
2018-11-07T04:36:27.818Z,8.22
2018-11-07T04:38:03.053Z,8.22
2018-11-07T04:39:38.483Z,8.27
2018-11-07T04:41:14.339Z,8.21
2018-11-07T04:42:49.624Z,8.16
2018-11-07T04:44:24.847Z,8.17
2018-11-07T04:45:59.807Z,8.10
2018-11-07T04:47:38.038Z,8.10
2018-11-07T04:49:14.027Z,8.06
2018-11-07T04:50:53.910Z,8.01
2018-11-07T04:52:30.705Z,7.99
2018-11-07T04:54:06.456Z,7.90
2018-11-07T04:55:43.556Z,7.78
2018-11-07T04:57:19.633Z,7.78
2018-11-07T04:58:54.637Z,7.72
2018-11-07T05:00:30.927Z,7.64
2018-11-07T05:02:06.945Z,7.71
2018-11-07T05:03:42.189Z,7.68
2018-11-07T05:05:18.164Z,7.70
2018-11-07T05:06:53.182Z,7.64
2018-11-07T05:08:28.373Z,7.57
2018-11-07T05:10:08.102Z,7.54
2018-11-07T05:12:04.154Z,7.43
2018-11-07T05:13:39.407Z,7.37
2018-11-07T05:15:17.351Z,7.29
2018-11-07T05:16:54.185Z,7.24
2018-11-07T05:18:29.609Z,7.19
2018-11-07T05:20:06.594Z,7.15
2018-11-07T05:21:41.610Z,7.10
2018-11-07T05:23:16.687Z,7.01
2018-11-07T05:24:53.310Z,6.96
2018-11-07T05:26:29.039Z,6.97
2018-11-07T05:28:07.297Z,7.06
2018-11-07T05:29:43.167Z,6.93
2018-11-07T05:31:18.106Z,7.00
2018-11-07T05:32:53.707Z,7.03
2018-11-07T05:34:30.935Z,6.99
2018-11-07T05:36:06.358Z,6.94
2018-11-07T05:37:41.494Z,6.96
2018-11-07T05:39:22.913Z,6.96
2018-11-07T05:40:59.614Z,6.96
2018-11-07T05:42:37.963Z,6.90
2018-11-07T05:44:13.699Z,7.04
2018-11-07T05:45:48.904Z,7.22
2018-11-07T05:47:27.219Z,7.24
2018-11-07T05:49:03.581Z,7.29
2018-11-07T05:50:38.563Z,7.29
2018-11-07T05:52:14.810Z,7.40
2018-11-07T05:53:49.834Z,7.40
2018-11-07T05:55:25.534Z,7.41
2018-11-07T05:57:09.259Z,7.41
2018-11-07T05:58:51.446Z,7.47
2018-11-07T06:00:27.041Z,7.37
2018-11-07T06:02:02.705Z,7.41
2018-11-07T06:03:38.035Z,7.38
2018-11-07T06:05:14.406Z,7.36
2018-11-07T06:06:50.523Z,7.32
2018-11-07T06:08:33.035Z,7.30
2018-11-07T06:10:10.366Z,7.39
2018-11-07T06:11:46.840Z,7.29
2018-11-07T06:13:24.052Z,7.35
2018-11-07T06:15:02.460Z,7.31
2018-11-07T06:16:37.811Z,7.41
2018-11-07T06:18:12.797Z,7.29
2018-11-07T06:19:57.116Z,7.36
2018-11-07T06:21:34.922Z,7.39
2018-11-07T06:23:15.222Z,7.35
2018-11-07T06:24:54.185Z,7.30
2018-11-07T06:26:30.037Z,7.43
2018-11-07T06:28:05.987Z,7.39
2018-11-07T06:29:42.916Z,7.40
2018-11-07T06:31:20.123Z,7.45
2018-11-07T06:32:55.415Z,7.37
2018-11-07T06:34:32.348Z,7.39
2018-11-07T06:36:12.550Z,7.42
2018-11-07T06:37:49.782Z,7.41
2018-11-07T06:39:24.721Z,7.39
2018-11-07T06:40:59.842Z,7.48
2018-11-07T06:42:36.490Z,7.53
2018-11-07T06:44:13.099Z,7.56
2018-11-07T06:45:53.318Z,7.62
2018-11-07T06:47:32.053Z,7.57
2018-11-07T06:49:13.579Z,7.57
2018-11-07T06:50:49.622Z,7.55
2018-11-07T06:52:26.507Z,7.58
2018-11-07T06:54:03.465Z,7.60
2018-11-07T06:55:39.273Z,7.75
2018-11-07T06:57:14.575Z,7.69
2018-11-07T06:58:53.163Z,7.68
2018-11-07T07:00:29.511Z,7.70
2018-11-07T07:02:07.592Z,7.68
2018-11-07T07:03:44.647Z,7.68
2018-11-07T07:05:19.849Z,7.68
2018-11-07T07:07:01.223Z,7.82
2018-11-07T07:08:38.286Z,7.97
2018-11-07T07:10:16.528Z,8.00
2018-11-07T07:11:52.636Z,8.13
2018-11-07T07:13:28.037Z,8.08
2018-11-07T07:15:15.714Z,8.00
2018-11-07T07:16:52.430Z,8.11
2018-11-07T07:18:31.861Z,8.06
2018-11-07T07:20:25.298Z,8.06
2018-11-07T07:22:09.397Z,8.02
2018-11-07T07:23:47.674Z,8.02
2018-11-07T07:25:26.149Z,8.09
2018-11-07T07:27:02.126Z,8.05
2018-11-07T07:28:40.081Z,8.09
2018-11-07T07:30:18.588Z,8.03
2018-11-07T07:31:59.101Z,8.02
2018-11-07T07:33:36.595Z,7.90
2018-11-07T07:35:12.769Z,7.92
2018-11-07T07:36:51.560Z,7.92
2018-11-07T07:38:26.853Z,7.84
2018-11-07T07:40:11.307Z,7.83
2018-11-07T07:41:52.869Z,7.85
2018-11-07T07:43:28.915Z,7.81
2018-11-07T07:45:12.201Z,7.75
2018-11-07T07:46:48.276Z,7.76
2018-11-07T07:48:24.433Z,7.81
2018-11-07T07:50:01.300Z,7.75
2018-11-07T07:51:39.564Z,7.70
2018-11-07T07:53:16.872Z,7.81
2018-11-07T07:54:52.091Z,7.90
2018-11-07T07:56:27.558Z,7.91
2018-11-07T07:58:06.230Z,7.95
2018-11-07T07:59:44.639Z,7.98
2018-11-07T08:01:25.198Z,7.97
2018-11-07T08:03:01.505Z,8.00
2018-11-07T08:04:43.712Z,7.95
2018-11-07T08:06:19.573Z,7.94
2018-11-07T08:07:56.701Z,8.08
2018-11-07T08:09:34.005Z,8.06
2018-11-07T08:11:12.366Z,8.17
2018-11-07T08:12:52.439Z,8.30
2018-11-07T08:14:31.747Z,8.35
2018-11-07T08:16:09.510Z,8.41
2018-11-07T08:17:47.361Z,8.47
2018-11-07T08:19:24.275Z,8.75
2018-11-07T08:21:03.009Z,8.91
2018-11-07T08:22:40.414Z,9.11
2018-11-07T08:24:30.787Z,9.49
2018-11-07T08:26:12.598Z,9.80
2018-11-07T08:27:50.269Z,10.06
2018-11-07T08:29:26.903Z,10.23
2018-11-07T08:31:04.646Z,10.43
2018-11-07T08:32:47.902Z,10.55
2018-11-07T08:34:45.215Z,10.68
2018-11-07T08:36:24.766Z,10.85
2018-11-07T08:38:06.963Z,10.99
2018-11-07T08:39:46.216Z,11.13
2018-11-07T08:41:23.947Z,11.34
2018-11-07T08:44:47.208Z,11.62
2018-11-07T08:50:15.115Z,11.75
2018-11-07T08:51:55.389Z,11.80
2018-11-07T08:53:34.580Z,11.81
2018-11-07T08:55:16.479Z,11.61
2018-11-07T08:56:55.280Z,11.35
2018-11-07T08:58:34.116Z,11.42
2018-11-07T09:00:20.213Z,11.52
2018-11-07T09:01:58.563Z,11.58
2018-11-07T09:03:40.021Z,11.54
2018-11-07T09:05:23.705Z,11.30
2018-11-07T09:07:14.288Z,11.08
2018-11-07T09:08:54.024Z,11.10
2018-11-07T09:10:31.762Z,11.03
2018-11-07T09:12:10.367Z,10.95
2018-11-07T09:13:51.019Z,10.91
2018-11-07T09:17:45.099Z,10.80
2018-11-07T09:19:36.254Z,10.70
2018-11-07T09:21:15.308Z,10.73
2018-11-07T09:23:03.343Z,10.70
2018-11-07T09:24:39.593Z,10.63
2018-11-07T09:26:18.255Z,10.69
2018-11-07T09:27:55.030Z,10.64
2018-11-07T09:29:32.514Z,10.68
2018-11-07T09:31:13.225Z,10.63
2018-11-07T09:32:52.452Z,10.68
2018-11-07T09:34:35.955Z,10.71
2018-11-07T09:36:16.012Z,10.69
2018-11-07T09:37:53.805Z,10.74
2018-11-07T09:39:31.321Z,10.70
2018-11-07T09:41:18.550Z,10.70
2018-11-07T09:42:53.944Z,10.70
2018-11-07T09:44:31.183Z,10.72
2018-11-07T09:46:11.487Z,10.70
2018-11-07T09:47:48.482Z,10.73
2018-11-07T09:49:25.433Z,10.71
2018-11-07T09:51:10.473Z,10.84
2018-11-07T09:52:48.731Z,10.85
2018-11-07T09:54:32.837Z,10.92
2018-11-07T09:56:26.928Z,10.94
2018-11-07T09:58:03.301Z,10.90
2018-11-07T09:59:48.029Z,10.94
2018-11-07T10:01:29.275Z,10.92
2018-11-07T10:03:11.575Z,10.95
2018-11-07T10:04:48.260Z,10.98
2018-11-07T10:06:26.272Z,10.98
2018-11-07T10:08:13.197Z,10.96
2018-11-07T10:11:40.943Z,11.07
2018-11-07T10:13:20.453Z,11.09
2018-11-07T10:14:56.298Z,11.05
2018-11-07T10:16:31.845Z,11.09
2018-11-07T10:18:07.326Z,11.10
2018-11-07T10:19:43.068Z,11.08
2018-11-07T10:21:20.713Z,11.13
2018-11-07T10:22:56.413Z,11.11
2018-11-07T10:24:33.469Z,11.23
2018-11-07T10:26:08.555Z,11.29
2018-11-07T10:27:46.826Z,11.33
2018-11-07T10:29:24.127Z,11.35
2018-11-07T10:30:59.536Z,11.38
2018-11-07T10:32:37.118Z,11.41
2018-11-07T10:34:16.330Z,11.41
2018-11-07T10:35:54.334Z,11.40
2018-11-07T10:37:41.531Z,11.46
2018-11-07T10:39:16.516Z,11.57
2018-11-07T10:40:53.476Z,11.58
2018-11-07T10:42:28.716Z,11.68
2018-11-07T10:44:06.539Z,11.68
2018-11-07T10:45:43.520Z,11.69
2018-11-07T10:47:18.645Z,11.76
2018-11-07T10:48:53.928Z,11.77
2018-11-07T10:50:33.358Z,11.81
2018-11-07T10:52:08.801Z,11.85
2018-11-07T10:53:46.076Z,11.92
2018-11-07T10:55:23.039Z,12.05
2018-11-07T10:56:58.543Z,12.11
2018-11-07T10:58:34.636Z,12.30
2018-11-07T11:00:17.692Z,12.49
2018-11-07T11:01:59.362Z,12.64
2018-11-07T11:03:35.334Z,12.82
2018-11-07T11:05:11.414Z,12.93
2018-11-07T11:06:46.590Z,12.98
2018-11-07T11:08:22.362Z,13.06
2018-11-07T11:10:03.722Z,13.12
2018-11-07T11:11:40.528Z,13.18
2018-11-07T11:13:16.794Z,13.28
2018-11-07T11:14:53.529Z,13.36
2018-11-07T11:16:29.035Z,13.55
2018-11-07T11:18:04.451Z,13.66
2018-11-07T11:19:39.836Z,13.62
2018-11-07T11:21:16.964Z,13.70
2018-11-07T11:22:53.228Z,13.83
2018-11-07T11:24:28.454Z,13.88
2018-11-07T11:26:07.271Z,13.82
2018-11-07T11:27:50.423Z,13.76
2018-11-07T11:29:40.297Z,13.78
2018-11-07T11:31:23.630Z,13.93
2018-11-07T11:33:08.379Z,13.81
2018-11-07T11:36:53.953Z,14.14
2018-11-07T11:38:40.555Z,13.98
2018-11-07T11:40:17.441Z,13.95
2018-11-07T11:41:58.624Z,13.89
2018-11-07T11:43:40.869Z,13.88
2018-11-07T11:45:23.639Z,13.85
2018-11-07T11:47:08.296Z,13.91
2018-11-07T11:48:56.828Z,13.91
2018-11-07T11:50:41.384Z,13.91
2018-11-07T11:52:18.660Z,13.90
2018-11-07T11:53:59.711Z,14.04
2018-11-07T11:55:51.387Z,14.17
2018-11-07T11:57:30.745Z,14.29
2018-11-07T11:59:07.581Z,14.31
2018-11-07T12:00:46.760Z,14.32
2018-11-07T12:02:27.044Z,14.28
2018-11-07T12:04:14.512Z,14.36
2018-11-07T12:05:54.118Z,14.31
2018-11-07T12:07:36.573Z,14.16
2018-11-07T12:09:21.442Z,14.20
2018-11-07T12:10:59.152Z,14.12
2018-11-07T12:12:38.438Z,14.20
2018-11-07T12:14:42.595Z,14.23
2018-11-07T12:16:28.808Z,14.22
2018-11-07T12:18:08.230Z,14.21
2018-11-07T12:19:59.651Z,14.14
2018-11-07T12:21:41.114Z,14.04
2018-11-07T12:23:24.545Z,13.99
2018-11-07T12:25:05.176Z,13.86
2018-11-07T12:26:43.362Z,13.71
2018-11-07T12:28:25.311Z,13.70
2018-11-07T12:30:09.335Z,13.68
2018-11-07T12:31:45.535Z,13.58
2018-11-07T12:33:21.626Z,13.53
2018-11-07T12:35:02.633Z,13.49
2018-11-07T12:36:38.392Z,13.49
2018-11-07T12:38:20.991Z,13.38
2018-11-07T12:39:56.344Z,13.34
2018-11-07T12:41:36.329Z,13.33
2018-11-07T12:43:16.011Z,13.32
2018-11-07T12:44:53.370Z,13.33
2018-11-07T12:46:29.743Z,13.41
2018-11-07T12:48:06.325Z,13.45
2018-11-07T12:49:42.559Z,13.57
2018-11-07T12:51:21.644Z,13.62
2018-11-07T12:53:01.531Z,13.64
2018-11-07T12:56:20.806Z,13.74
2018-11-07T12:57:59.493Z,13.85
2018-11-07T12:59:40.957Z,13.97
2018-11-07T13:01:38.087Z,14.03
2018-11-07T13:05:16.158Z,14.25
2018-11-07T13:06:51.966Z,14.17
2018-11-07T13:08:30.259Z,14.14
2018-11-07T13:10:06.180Z,14.16
2018-11-07T13:11:42.982Z,14.09
2018-11-07T13:13:22.653Z,14.06
2018-11-07T13:15:00.445Z,14.01
2018-11-07T13:16:40.380Z,14.01
2018-11-07T13:18:19.255Z,13.96
2018-11-07T13:19:57.780Z,13.94
2018-11-07T13:21:34.304Z,13.90
2018-11-07T13:23:12.387Z,13.89
2018-11-07T13:24:48.496Z,13.81
2018-11-07T13:26:25.755Z,13.78
2018-11-07T13:28:01.481Z,13.74
2018-11-07T13:29:39.701Z,13.71
2018-11-07T13:31:15.515Z,13.66
2018-11-07T13:32:53.132Z,13.61
2018-11-07T13:34:32.154Z,13.60
2018-11-07T13:36:12.067Z,13.53
2018-11-07T13:37:49.061Z,13.49
2018-11-07T13:39:25.905Z,13.49
2018-11-07T13:41:02.961Z,13.46
2018-11-07T13:42:39.386Z,13.39
2018-11-07T13:44:30.160Z,13.38
2018-11-07T13:46:15.698Z,13.37
2018-11-07T13:47:55.611Z,13.40
2018-11-07T13:49:30.863Z,13.37
2018-11-07T13:51:10.189Z,13.40
2018-11-07T13:52:48.385Z,13.37
2018-11-07T13:54:25.384Z,13.39
2018-11-07T13:56:00.591Z,13.38
2018-11-07T13:57:37.379Z,13.38
2018-11-07T13:59:14.696Z,13.33
2018-11-07T14:00:52.842Z,13.34
2018-11-07T14:06:42.143Z,13.31
2018-11-07T14:08:17.325Z,13.32
2018-11-07T14:09:57.195Z,13.24
2018-11-07T14:11:32.756Z,13.18
2018-11-07T14:13:10.802Z,13.20
2018-11-07T14:14:46.646Z,13.12
2018-11-07T14:16:23.321Z,13.07
2018-11-07T14:17:58.467Z,12.98
2018-11-07T14:19:33.975Z,12.92
2018-11-07T14:21:26.752Z,12.90
2018-11-07T14:23:03.800Z,12.86
2018-11-07T14:24:43.153Z,12.76
2018-11-07T14:26:21.119Z,12.81
2018-11-07T14:27:58.291Z,12.79
2018-11-07T14:29:39.461Z,12.71
2018-11-07T14:31:16.404Z,12.66
2018-11-07T14:33:03.672Z,12.56
2018-11-07T14:34:40.767Z,12.47
2018-11-07T14:38:03.155Z,12.37
2018-11-07T14:41:26.358Z,12.37
2018-11-07T14:43:01.958Z,12.34
2018-11-07T14:44:39.094Z,12.29
2018-11-07T14:46:17.621Z,12.22
2018-11-07T14:47:54.038Z,12.15
2018-11-07T14:49:29.312Z,12.11
2018-11-07T14:51:05.690Z,12.08
2018-11-07T14:52:45.305Z,12.02
2018-11-07T14:54:23.802Z,12.10
2018-11-07T14:56:04.104Z,12.09
2018-11-07T14:57:40.803Z,12.08
2018-11-07T14:59:16.221Z,12.05
2018-11-07T15:00:54.547Z,11.98
2018-11-07T15:02:31.302Z,11.85
2018-11-07T15:04:09.118Z,11.78
2018-11-07T15:05:49.654Z,11.73
2018-11-07T15:07:32.367Z,11.79
2018-11-07T15:09:11.893Z,11.65
2018-11-07T15:11:03.310Z,11.50
2018-11-07T15:12:44.483Z,11.62
2018-11-07T15:16:14.638Z,11.33
2018-11-07T15:17:54.393Z,11.31
2018-11-07T15:19:33.442Z,11.35
2018-11-07T15:21:10.383Z,11.34
2018-11-07T15:22:57.138Z,11.35
2018-11-07T15:24:41.345Z,11.27
2018-11-07T15:26:29.722Z,11.15
2018-11-07T15:28:07.072Z,11.12
2018-11-07T15:29:44.783Z,11.16
2018-11-07T15:31:39.355Z,11.13
2018-11-07T15:33:34.190Z,11.05
2018-11-07T15:35:30.597Z,11.12
2018-11-07T15:37:05.677Z,11.11
2018-11-07T15:38:43.579Z,11.18
2018-11-07T15:40:20.232Z,11.16
2018-11-07T15:41:57.529Z,11.09
2018-11-07T15:46:13.446Z,11.00
2018-11-07T15:48:29.061Z,10.95
2018-11-07T15:50:09.488Z,10.99
2018-11-07T15:51:46.689Z,10.90
2018-11-07T15:53:22.214Z,10.91
2018-11-07T15:55:07.184Z,10.81
2018-11-07T15:56:45.312Z,10.76
2018-11-07T15:58:34.334Z,10.77
2018-11-07T16:00:16.485Z,10.78
2018-11-07T16:02:01.989Z,10.82
2018-11-07T16:03:42.756Z,10.71
2018-11-07T16:05:19.324Z,10.83
2018-11-07T16:06:56.476Z,10.85
2018-11-07T16:08:33.272Z,10.85
2018-11-07T16:10:18.176Z,10.86
2018-11-07T16:11:54.378Z,10.90
2018-11-07T16:13:32.126Z,10.94
2018-11-07T16:15:17.536Z,11.08
2018-11-07T16:17:03.456Z,11.17
2018-11-07T16:18:41.351Z,11.21
2018-11-07T16:20:20.221Z,11.33
2018-11-07T16:21:56.029Z,11.39
2018-11-07T16:23:37.827Z,11.36
2018-11-07T16:25:14.423Z,11.36
2018-11-07T16:26:53.367Z,11.43
2018-11-07T16:28:44.371Z,11.42
2018-11-07T16:30:41.243Z,11.39
2018-11-07T16:32:20.227Z,11.35
2018-11-07T16:33:58.939Z,11.34
2018-11-07T16:35:51.751Z,11.34
2018-11-07T16:37:53.304Z,11.28
2018-11-07T16:39:46.493Z,11.27
2018-11-07T16:41:48.151Z,11.19
2018-11-07T16:43:32.824Z,11.18
2018-11-07T16:45:20.117Z,11.08
2018-11-07T16:47:07.479Z,11.01
2018-11-07T16:48:52.127Z,10.92
2018-11-07T16:50:28.289Z,10.81
2018-11-07T16:52:06.746Z,10.69
2018-11-07T16:54:16.324Z,10.64
2018-11-07T16:56:10.581Z,10.60
2018-11-07T16:57:51.806Z,10.58
2018-11-07T16:59:36.203Z,10.54
2018-11-07T17:01:16.706Z,10.43
2018-11-07T17:03:11.706Z,10.37
2018-11-07T17:04:58.572Z,10.36
2018-11-07T17:06:45.662Z,10.31
2018-11-07T17:08:26.708Z,10.24
2018-11-07T17:10:18.410Z,10.22
2018-11-07T17:12:02.743Z,10.18
2018-11-07T17:13:46.621Z,10.10
2018-11-07T17:15:28.819Z,10.10
2018-11-07T17:17:08.648Z,10.07
2018-11-07T17:18:46.805Z,9.97
2018-11-07T17:20:35.885Z,10.02
2018-11-07T17:22:18.560Z,9.94
2018-11-07T17:24:06.050Z,9.93
2018-11-07T17:25:49.029Z,9.97
2018-11-07T17:27:29.647Z,9.91
2018-11-07T17:29:18.059Z,9.94
2018-11-07T17:31:03.168Z,9.92
2018-11-07T17:32:40.281Z,9.85
2018-11-07T17:34:29.337Z,9.81
2018-11-07T17:36:07.656Z,9.79
2018-11-07T17:37:46.009Z,9.82
2018-11-07T17:39:24.633Z,9.85
2018-11-07T17:41:00.965Z,9.89
2018-11-07T17:42:37.635Z,9.89
2018-11-07T17:44:17.938Z,9.84
2018-11-07T17:45:55.683Z,9.91
2018-11-07T17:47:33.541Z,9.80
2018-11-07T17:49:24.622Z,9.85
2018-11-07T17:51:16.712Z,9.80
2018-11-07T17:55:15.901Z,9.80
2018-11-07T17:56:58.662Z,9.78
2018-11-07T17:58:38.664Z,9.79
2018-11-07T18:02:12.691Z,9.82
2018-11-07T18:03:48.093Z,9.84
2018-11-07T18:05:26.511Z,9.83
2018-11-07T18:07:02.253Z,9.79
2018-11-07T18:08:40.011Z,9.77
2018-11-07T18:10:16.751Z,9.82
2018-11-07T18:11:55.211Z,9.81
2018-11-07T18:13:32.279Z,9.84
2018-11-07T18:15:10.331Z,9.86
2018-11-07T18:16:48.873Z,9.84
2018-11-07T18:18:32.824Z,9.89
2018-11-07T18:20:16.367Z,9.82
2018-11-07T18:21:54.391Z,9.90
2018-11-07T18:23:35.136Z,9.89
2018-11-07T18:25:16.397Z,9.88
2018-11-07T18:26:57.137Z,9.87
2018-11-07T18:28:36.521Z,9.84
2018-11-07T18:30:17.340Z,9.84
2018-11-07T18:31:56.716Z,9.84
2018-11-07T18:33:39.194Z,9.86
2018-11-07T18:35:21.713Z,9.90
2018-11-07T18:37:01.166Z,9.82
2018-11-07T18:38:41.032Z,9.93
2018-11-07T18:40:20.886Z,9.88
2018-11-07T18:42:06.486Z,9.90
2018-11-07T18:43:44.885Z,9.89
2018-11-07T18:45:26.288Z,9.97
2018-11-07T18:47:03.719Z,9.92
2018-11-07T18:48:40.153Z,9.94
2018-11-07T18:50:20.852Z,9.99
2018-11-07T18:51:59.662Z,10.00
2018-11-07T18:53:35.962Z,9.96
2018-11-07T18:55:15.437Z,9.96
2018-11-07T18:56:53.868Z,9.95
2018-11-07T18:58:29.308Z,9.93
2018-11-07T19:00:14.120Z,10.00
2018-11-07T19:01:53.722Z,9.92
2018-11-07T19:03:32.814Z,9.91
2018-11-07T19:05:15.286Z,9.91
2018-11-07T19:06:53.136Z,9.89
2018-11-07T19:08:31.111Z,9.90
2018-11-07T19:10:10.831Z,9.86
2018-11-07T19:12:21.200Z,9.89
2018-11-07T19:14:04.359Z,9.87
2018-11-07T19:15:49.096Z,9.86
2018-11-07T19:17:47.213Z,9.81
2018-11-07T19:19:33.740Z,9.84
2018-11-07T19:21:15.263Z,9.78
2018-11-07T19:22:52.664Z,9.83
2018-11-07T19:24:33.263Z,9.80
2018-11-07T19:26:18.930Z,9.78
2018-11-07T19:27:56.271Z,9.81
2018-11-07T19:29:35.982Z,9.80
2018-11-07T19:31:29.767Z,9.82
2018-11-07T19:33:06.481Z,9.84
2018-11-07T19:34:55.320Z,9.84
2018-11-07T19:36:39.563Z,9.75
2018-11-07T19:38:32.506Z,9.81
2018-11-07T19:40:19.620Z,9.77
2018-11-07T19:41:58.866Z,9.76
2018-11-07T19:43:48.186Z,9.77
2018-11-07T19:45:35.525Z,9.84
2018-11-07T19:47:12.885Z,9.83
2018-11-07T19:48:57.420Z,9.83
2018-11-07T19:50:37.832Z,9.84
2018-11-07T19:52:17.386Z,9.80
2018-11-07T19:53:59.245Z,9.84
2018-11-07T19:55:42.722Z,9.82
2018-11-07T19:57:22.345Z,9.79
2018-11-07T19:59:05.464Z,9.83
2018-11-07T20:00:43.598Z,9.75
2018-11-07T20:02:24.724Z,9.76
2018-11-07T20:04:07.584Z,9.74
2018-11-07T20:05:43.825Z,9.72
2018-11-07T20:07:23.593Z,9.69
2018-11-07T20:09:22.446Z,9.66
2018-11-07T20:11:11.271Z,9.62
2018-11-07T20:12:48.736Z,9.60
2018-11-07T20:16:22.297Z,9.50
2018-11-07T20:18:02.066Z,9.57
2018-11-07T20:19:44.276Z,9.51
2018-11-07T20:21:23.454Z,9.53
2018-11-07T20:23:00.536Z,9.44
2018-11-07T20:24:38.308Z,9.47
2018-11-07T20:26:18.065Z,9.45
2018-11-07T20:27:57.343Z,9.42
2018-11-07T20:29:35.213Z,9.42
2018-11-07T20:31:17.450Z,9.47
2018-11-07T20:32:57.440Z,9.44
2018-11-07T20:34:37.805Z,9.40
2018-11-07T20:36:24.306Z,9.46
2018-11-07T20:38:25.809Z,9.48
2018-11-07T20:40:09.882Z,9.52
2018-11-07T20:41:53.019Z,9.50
2018-11-07T20:43:31.654Z,9.51
2018-11-07T20:45:17.277Z,9.50
2018-11-07T20:47:16.670Z,9.53
2018-11-07T20:49:05.258Z,9.60
2018-11-07T20:50:53.745Z,9.52
2018-11-07T20:52:31.091Z,9.49
2018-11-07T20:54:13.521Z,9.51
2018-11-07T20:55:49.260Z,9.46
2018-11-07T20:57:26.941Z,9.43
2018-11-07T20:59:07.362Z,9.46
2018-11-07T21:00:43.524Z,9.43
2018-11-07T21:02:22.683Z,9.47
2018-11-07T21:04:00.399Z,9.48
2018-11-07T21:05:40.934Z,9.49
2018-11-07T21:07:16.843Z,9.47
2018-11-07T21:08:54.842Z,9.48
2018-11-07T21:10:31.422Z,9.46
2018-11-07T21:12:15.887Z,9.44
2018-11-07T21:14:15.824Z,9.45
2018-11-07T21:16:02.507Z,9.45
2018-11-07T21:17:53.324Z,9.52
2018-11-07T21:21:43.573Z,9.51
2018-11-07T21:23:29.824Z,9.51
2018-11-07T21:25:28.946Z,9.54
2018-11-07T21:27:28.987Z,9.49
2018-11-07T21:29:17.735Z,9.46
2018-11-07T21:31:15.654Z,9.46
2018-11-07T21:33:04.696Z,9.43
2018-11-07T21:34:53.746Z,9.44
2018-11-07T21:36:40.577Z,9.41
2018-11-07T21:38:31.021Z,9.43
2018-11-07T21:40:40.762Z,9.39
2018-11-07T21:42:45.561Z,9.42
2018-11-07T21:44:33.500Z,9.47
2018-11-07T21:48:16.392Z,9.47
2018-11-07T21:50:11.261Z,9.48
2018-11-07T21:56:39.339Z,9.53
2018-11-07T22:00:35.899Z,9.53
2018-11-07T22:02:19.247Z,9.56
2018-11-07T22:04:00.785Z,9.56
2018-11-07T22:05:37.862Z,9.61
2018-11-07T22:07:16.474Z,9.65
2018-11-07T22:08:53.444Z,9.66
2018-11-07T22:10:36.854Z,9.61
2018-11-07T22:12:25.099Z,9.68
2018-11-07T22:14:06.998Z,9.68
2018-11-07T22:15:47.478Z,9.65
2018-11-07T22:17:28.590Z,9.72
2018-11-07T22:19:06.500Z,9.73
2018-11-07T22:22:30.848Z,9.65
2018-11-07T22:24:11.560Z,9.59
2018-11-07T22:25:59.487Z,9.61
2018-11-07T22:27:37.598Z,9.64
2018-11-07T22:29:25.053Z,9.63
2018-11-07T22:31:03.180Z,9.66
2018-11-07T22:32:41.694Z,9.67
2018-11-07T22:34:24.900Z,9.68
2018-11-07T22:36:12.335Z,9.65
2018-11-07T22:37:56.360Z,9.69
2018-11-07T22:41:55.306Z,9.65
2018-11-07T22:43:40.498Z,9.65
2018-11-07T22:45:21.567Z,9.64
2018-11-07T22:47:03.126Z,9.64
2018-11-07T22:48:56.756Z,9.61